Time;durP1;ratioP1;P1;durP2;ratioP2;P2;SDS_P1;SDS_P2;PMS_P1;PMS_P2;Temp;Humidity;BMP_temperature;BMP_pressure;BME280_temperature;BME280_humidity;BME280_pressure;Samples;Min_cycle;Max_cycle;Signal;HPM_P1;HPM_P2
2023/08/18 00:01:29;;;;;;;7.03;6.33;;;;;;;;;;5077305;28;20199;-76
2023/08/18 00:03:55;;;;;;;8.70;7.63;;;;;;;;;;5068842;28;20166;-76
2023/08/18 00:06:20;;;;;;;7.80;6.63;;;;;;;;;;5070868;28;20211;-76
2023/08/18 00:08:45;;;;;;;8.87;7.63;;;;;;;;;;5085542;28;20211;-76
2023/08/18 00:11:10;;;;;;;10.07;7.80;;;;;;;;;;5087816;28;20279;-76
2023/08/18 00:13:36;;;;;;;6.60;6.00;;;;;;;;;;5067847;28;20189;-76
2023/08/18 00:16:01;;;;;;;6.30;5.73;;;;;;;;;;5069105;28;20184;-76
2023/08/18 00:18:26;;;;;;;8.60;6.33;;;;;;;;;;5068493;28;20174;-76
2023/08/18 00:20:52;;;;;;;7.00;6.00;;;;;;;;;;5068523;28;20213;-76
2023/08/18 00:23:17;;;;;;;5.90;5.33;;;;;;;;;;5069831;28;20179;-76
2023/08/18 00:25:42;;;;;;;6.50;5.80;;;;;;;;;;5070700;28;20175;-76
2023/08/18 00:28:07;;;;;;;6.47;5.97;;;;;;;;;;5068225;28;20186;-76
2023/08/18 00:30:33;;;;;;;8.63;5.40;;;;;;;;;;5070574;28;20178;-76
2023/08/18 00:32:58;;;;;;;6.30;5.20;;;;;;;;;;5064981;28;20209;-76
2023/08/18 00:35:23;;;;;;;5.27;4.77;;;;;;;;;;5070143;28;20177;-77
2023/08/18 00:37:49;;;;;;;5.20;4.70;;;;;;;;;;5078872;28;20193;-76
2023/08/18 00:40:14;;;;;;;5.97;5.37;;;;;;;;;;5081542;28;20200;-76
2023/08/18 00:42:39;;;;;;;6.17;5.67;;;;;;;;;;5096012;28;20183;-76
2023/08/18 00:45:05;;;;;;;8.00;6.13;;;;;;;;;;5072537;28;20172;-76
2023/08/18 00:47:30;;;;;;;5.30;4.90;;;;;;;;;;5098456;28;20190;-76
2023/08/18 00:49:56;;;;;;;5.00;4.50;;;;;;;;;;5069607;28;20188;-76
2023/08/18 00:52:21;;;;;;;5.63;4.77;;;;;;;;;;5071022;28;20245;-76
2023/08/18 00:54:47;;;;;;;6.17;4.33;;;;;;;;;;5067251;28;20182;-76
2023/08/18 00:57:13;;;;;;;5.50;4.43;;;;;;;;;;5075404;28;20262;-76
2023/08/18 00:59:38;;;;;;;5.27;4.40;;;;;;;;;;5071026;28;20203;-76
2023/08/18 01:02:04;;;;;;;5.13;4.73;;;;;;;;;;5069373;28;20177;-76
2023/08/18 01:04:30;;;;;;;4.67;4.27;;;;;;;;;;5090977;28;20181;-76
2023/08/18 01:06:56;;;;;;;5.47;4.40;;;;;;;;;;5072965;28;20213;-76
2023/08/18 01:09:21;;;;;;;4.20;3.80;;;;;;;;;;5088016;28;20173;-76
2023/08/18 01:11:52;;;;;;;5.50;4.47;;;;;;;;;;5070512;28;20191;-76
2023/08/18 01:14:17;;;;;;;4.73;4.33;;;;;;;;;;5089371;28;20175;-76
2023/08/18 01:16:47;;;;;;;4.60;4.03;;;;;;;;;;5074411;28;20183;-76
2023/08/18 01:19:14;;;;;;;4.90;4.43;;;;;;;;;;5075521;28;20210;-76
2023/08/18 01:21:40;;;;;;;5.07;4.53;;;;;;;;;;5075903;28;20284;-76
2023/08/18 01:24:06;;;;;;;6.47;4.33;;;;;;;;;;5077089;28;20172;-76
2023/08/18 01:26:31;;;;;;;5.83;3.83;;;;;;;;;;5073609;28;20264;-76
2023/08/18 01:28:56;;;;;;;4.87;4.27;;;;;;;;;;5095973;28;20175;-76
2023/08/18 01:31:27;;;;;;;8.77;4.30;;;;;;;;;;5076914;28;20247;-76
2023/08/18 01:33:54;;;;;;;5.07;3.87;;;;;;;;;;5072676;28;20215;-76
2023/08/18 01:36:23;;;;;;;10.87;4.77;;;;;;;;;;5071211;28;20231;-76
2023/08/18 01:38:51;;;;;;;5.87;3.83;;;;;;;;;;5067680;28;20188;-76
2023/08/18 01:41:18;;;;;;;6.37;3.80;;;;;;;;;;5087475;28;20286;-76
2023/08/18 01:43:43;;;;;;;4.40;4.00;;;;;;;;;;5084785;28;20177;-76
2023/08/18 01:46:08;;;;;;;6.33;4.10;;;;;;;;;;5072951;28;20184;-76
2023/08/18 01:48:33;;;;;;;5.00;4.50;;;;;;;;;;5071112;28;20173;-76
2023/08/18 01:50:59;;;;;;;5.60;3.60;;;;;;;;;;5074205;28;20203;-76
2023/08/18 01:53:24;;;;;;;5.53;3.80;;;;;;;;;;5069434;28;20183;-76
2023/08/18 01:55:49;;;;;;;4.33;3.93;;;;;;;;;;5073465;28;20195;-76
2023/08/18 01:58:14;;;;;;;4.40;3.70;;;;;;;;;;5072209;28;20189;-76
2023/08/18 02:00:40;;;;;;;4.03;3.20;;;;;;;;;;5070929;28;20205;-76
2023/08/18 02:03:05;;;;;;;4.33;3.40;;;;;;;;;;5070473;28;20233;-76
2023/08/18 02:05:30;;;;;;;4.53;2.90;;;;;;;;;;5070218;28;20180;-76
2023/08/18 02:07:57;;;;;;;3.60;3.30;;;;;;;;;;5086346;28;20275;-76
2023/08/18 02:10:22;;;;;;;4.13;3.27;;;;;;;;;;5070489;28;20280;-76
2023/08/18 02:12:47;;;;;;;3.47;3.17;;;;;;;;;;5075055;28;20287;-76
2023/08/18 02:15:13;;;;;;;4.37;3.20;;;;;;;;;;5070070;28;20173;-76
2023/08/18 02:17:38;;;;;;;5.80;3.83;;;;;;;;;;5085935;28;20187;-76
2023/08/18 02:20:04;;;;;;;3.43;2.80;;;;;;;;;;5068468;28;20243;-76
2023/08/18 02:22:29;;;;;;;3.13;2.87;;;;;;;;;;5070132;28;20202;-76
2023/08/18 02:24:54;;;;;;;7.50;3.13;;;;;;;;;;5069291;28;20185;-76
2023/08/18 02:27:19;;;;;;;3.07;2.87;;;;;;;;;;5087122;28;20201;-76
2023/08/18 02:29:45;;;;;;;3.20;2.90;;;;;;;;;;5068158;28;20198;-76
2023/08/18 02:32:10;;;;;;;3.40;2.90;;;;;;;;;;5071104;28;20248;-76
2023/08/18 02:34:35;;;;;;;3.43;3.13;;;;;;;;;;5071433;28;20178;-76
2023/08/18 02:37:00;;;;;;;3.97;2.80;;;;;;;;;;5079312;28;20293;-76
2023/08/18 02:39:26;;;;;;;4.27;2.80;;;;;;;;;;5093189;28;20183;-76
2023/08/18 02:41:51;;;;;;;3.07;2.77;;;;;;;;;;5083858;28;20202;-76
2023/08/18 02:44:17;;;;;;;3.17;2.73;;;;;;;;;;5076615;28;20210;-75
2023/08/18 02:46:42;;;;;;;3.43;3.13;;;;;;;;;;5092310;28;20187;-76
2023/08/18 02:49:07;;;;;;;3.40;2.80;;;;;;;;;;5076151;28;20231;-76
2023/08/18 02:51:32;;;;;;;3.60;3.13;;;;;;;;;;5076758;28;20199;-76
2023/08/18 02:53:58;;;;;;;3.90;2.87;;;;;;;;;;5091245;28;20188;-76
2023/08/18 02:56:23;;;;;;;2.73;2.50;;;;;;;;;;5091130;28;20176;-76
2023/08/18 02:58:48;;;;;;;5.30;2.73;;;;;;;;;;5073356;28;20184;-76
2023/08/18 03:01:14;;;;;;;5.87;2.53;;;;;;;;;;5071745;28;20215;-76
2023/08/18 03:03:39;;;;;;;5.60;3.43;;;;;;;;;;5078251;28;20279;-76
2023/08/18 03:06:05;;;;;;;3.10;2.90;;;;;;;;;;5091628;28;20231;-76
2023/08/18 03:08:31;;;;;;;3.37;2.73;;;;;;;;;;5082308;28;20228;-76
2023/08/18 03:10:57;;;;;;;6.77;3.57;;;;;;;;;;5090585;28;20187;-76
2023/08/18 03:13:22;;;;;;;2.93;2.63;;;;;;;;;;5076412;28;20219;-76
2023/08/18 03:15:47;;;;;;;3.97;3.30;;;;;;;;;;5079741;28;20184;-76
2023/08/18 03:18:12;;;;;;;3.13;2.60;;;;;;;;;;5090713;28;20186;-76
2023/08/18 03:20:38;;;;;;;3.30;2.63;;;;;;;;;;5077399;28;20300;-76
2023/08/18 03:23:03;;;;;;;4.97;3.17;;;;;;;;;;5071953;28;20225;-76
2023/08/18 03:25:28;;;;;;;3.33;2.60;;;;;;;;;;5092332;28;20174;-76
2023/08/18 03:27:53;;;;;;;3.93;2.83;;;;;;;;;;5078883;28;20178;-76
2023/08/18 03:30:18;;;;;;;3.70;2.70;;;;;;;;;;5093268;28;20181;-76
2023/08/18 03:32:44;;;;;;;4.73;2.73;;;;;;;;;;5093247;28;20228;-76
2023/08/18 03:35:09;;;;;;;3.47;2.50;;;;;;;;;;5075466;28;20275;-76
2023/08/18 03:37:34;;;;;;;3.50;2.40;;;;;;;;;;5074450;28;20223;-76
2023/08/18 03:39:59;;;;;;;2.60;2.40;;;;;;;;;;5088168;28;20248;-76
2023/08/18 03:42:25;;;;;;;4.07;2.40;;;;;;;;;;5100399;28;20170;-76
2023/08/18 03:44:50;;;;;;;3.47;2.20;;;;;;;;;;5073727;28;20194;-76
2023/08/18 03:47:15;;;;;;;2.83;2.63;;;;;;;;;;5076197;28;20258;-76
2023/08/18 03:49:40;;;;;;;3.77;2.60;;;;;;;;;;5077778;28;20226;-76
2023/08/18 03:52:06;;;;;;;3.13;2.83;;;;;;;;;;5088053;28;20262;-76
2023/08/18 03:54:31;;;;;;;4.83;2.63;;;;;;;;;;5071434;28;20256;-76
2023/08/18 03:56:56;;;;;;;2.93;2.73;;;;;;;;;;5070132;28;20350;-76
2023/08/18 03:59:21;;;;;;;2.93;2.50;;;;;;;;;;5076095;28;20257;-76
2023/08/18 04:01:46;;;;;;;3.50;2.40;;;;;;;;;;5080142;28;20208;-76
2023/08/18 04:04:12;;;;;;;4.90;2.57;;;;;;;;;;5091384;28;20223;-76
2023/08/18 04:06:37;;;;;;;4.97;2.63;;;;;;;;;;5077832;28;20175;-76
2023/08/18 04:09:06;;;;;;;4.30;2.67;;;;;;;;;;5091507;28;20191;-76
2023/08/18 04:11:33;;;;;;;4.50;3.20;;;;;;;;;;5094267;28;20211;-76
2023/08/18 04:13:58;;;;;;;4.43;2.83;;;;;;;;;;5071846;28;20181;-76
2023/08/18 04:16:23;;;;;;;3.20;2.90;;;;;;;;;;5081351;28;20277;-76
2023/08/18 04:18:48;;;;;;;4.13;2.67;;;;;;;;;;5095427;28;20267;-76
2023/08/18 04:21:13;;;;;;;5.70;2.60;;;;;;;;;;5076822;28;20217;-76
2023/08/18 04:23:39;;;;;;;2.73;2.53;;;;;;;;;;5070094;28;20180;-76
2023/08/18 04:26:04;;;;;;;7.03;3.73;;;;;;;;;;5070319;28;20224;-76
2023/08/18 04:28:29;;;;;;;3.67;2.43;;;;;;;;;;5068476;28;20197;-76
2023/08/18 04:30:55;;;;;;;2.70;2.50;;;;;;;;;;5087164;28;20260;-76
2023/08/18 04:33:20;;;;;;;2.60;2.40;;;;;;;;;;5072135;28;20183;-77
2023/08/18 04:35:45;;;;;;;2.97;2.67;;;;;;;;;;5071429;28;20227;-77
2023/08/18 04:38:12;;;;;;;4.73;3.97;;;;;;;;;;5088029;28;20186;-77
2023/08/18 04:40:37;;;;;;;6.23;5.70;;;;;;;;;;5088313;28;20347;-77
2023/08/18 04:43:02;;;;;;;4.70;4.30;;;;;;;;;;5073121;28;20245;-77
2023/08/18 04:45:28;;;;;;;6.50;5.83;;;;;;;;;;5070015;28;20173;-77
2023/08/18 04:47:53;;;;;;;4.10;3.30;;;;;;;;;;5067717;28;20177;-77
2023/08/18 04:50:18;;;;;;;4.50;2.70;;;;;;;;;;5062873;28;20206;-77
2023/08/18 04:52:43;;;;;;;3.77;2.80;;;;;;;;;;5089577;28;20247;-77
2023/08/18 04:55:09;;;;;;;3.97;2.40;;;;;;;;;;5091795;28;20182;-77
2023/08/18 04:57:34;;;;;;;2.80;2.60;;;;;;;;;;5075183;28;20314;-77
2023/08/18 04:59:59;;;;;;;3.33;3.03;;;;;;;;;;5091032;28;20230;-77
2023/08/18 05:02:26;;;;;;;2.90;2.70;;;;;;;;;;5076903;28;20238;-77
2023/08/18 05:04:51;;;;;;;3.77;2.60;;;;;;;;;;5100914;28;20261;-77
2023/08/18 05:07:17;;;;;;;4.13;2.80;;;;;;;;;;5073013;28;20286;-77
2023/08/18 05:09:42;;;;;;;6.00;2.93;;;;;;;;;;5090224;28;20163;-77
2023/08/18 05:12:08;;;;;;;3.33;2.40;;;;;;;;;;5091327;28;20198;-77
2023/08/18 05:14:33;;;;;;;2.70;2.47;;;;;;;;;;5073803;28;20197;-76
2023/08/18 05:16:59;;;;;;;3.27;2.70;;;;;;;;;;5072011;28;20273;-77
2023/08/18 05:19:24;;;;;;;3.03;2.47;;;;;;;;;;5092764;28;20263;-76
2023/08/18 05:21:49;;;;;;;3.97;2.90;;;;;;;;;;5074003;28;20194;-77
2023/08/18 05:24:14;;;;;;;6.50;3.90;;;;;;;;;;5072424;28;20267;-76
2023/08/18 05:26:39;;;;;;;3.63;2.87;;;;;;;;;;5093714;28;20177;-76
2023/08/18 05:29:05;;;;;;;4.47;2.47;;;;;;;;;;5069555;28;20178;-76
2023/08/18 05:31:30;;;;;;;16.93;3.83;;;;;;;;;;5068161;28;20272;-77
2023/08/18 05:33:56;;;;;;;3.53;2.57;;;;;;;;;;5082711;28;20180;-76
2023/08/18 05:36:21;;;;;;;5.80;2.93;;;;;;;;;;5077778;28;20292;-77
2023/08/18 05:38:47;;;;;;;2.67;2.47;;;;;;;;;;5082838;28;20228;-77
2023/08/18 05:41:13;;;;;;;3.00;2.67;;;;;;;;;;5055591;28;20261;-76
2023/08/18 05:43:39;;;;;;;9.67;3.10;;;;;;;;;;5063436;28;20181;-76
2023/08/18 05:46:04;;;;;;;3.20;2.40;;;;;;;;;;5065339;28;20226;-76
2023/08/18 05:48:30;;;;;;;27.77;5.10;;;;;;;;;;5066505;28;20186;-76
2023/08/18 05:50:56;;;;;;;4.47;2.40;;;;;;;;;;5062981;28;20203;-76
2023/08/18 05:53:21;;;;;;;3.13;2.83;;;;;;;;;;5064970;28;20183;-76
2023/08/18 05:55:46;;;;;;;2.60;2.40;;;;;;;;;;5061759;28;20314;-77
2023/08/18 05:58:12;;;;;;;3.27;2.40;;;;;;;;;;5067105;28;20178;-76
2023/08/18 06:00:37;;;;;;;2.87;2.30;;;;;;;;;;5065629;28;20254;-76
2023/08/18 06:03:02;;;;;;;2.57;2.30;;;;;;;;;;5068303;28;20280;-76
2023/08/18 06:05:28;;;;;;;2.70;2.20;;;;;;;;;;5080335;28;20176;-76
2023/08/18 06:07:54;;;;;;;2.53;2.30;;;;;;;;;;5081005;28;20257;-77
2023/08/18 06:10:19;;;;;;;2.93;2.40;;;;;;;;;;5090752;28;20259;-76
2023/08/18 06:12:45;;;;;;;3.30;2.20;;;;;;;;;;5082173;28;20187;-76
2023/08/18 06:15:10;;;;;;;4.27;2.63;;;;;;;;;;5060871;28;20183;-76
2023/08/18 06:17:36;;;;;;;3.23;2.10;;;;;;;;;;5065182;28;20274;-76
2023/08/18 06:20:01;;;;;;;3.40;1.97;;;;;;;;;;5087959;28;20285;-76
2023/08/18 06:22:26;;;;;;;2.23;2.03;;;;;;;;;;5073155;28;20199;-76
2023/08/18 06:24:52;;;;;;;2.67;2.13;;;;;;;;;;5061450;28;20304;-76
2023/08/18 06:27:17;;;;;;;80.67;9.50;;;;;;;;;;5062917;28;20184;-76
2023/08/18 06:29:42;;;;;;;3.07;2.77;;;;;;;;;;5067368;28;20181;-76
2023/08/18 06:32:07;;;;;;;2.53;2.00;;;;;;;;;;5064088;28;20187;-76
2023/08/18 06:34:33;;;;;;;3.40;2.10;;;;;;;;;;5080764;28;20183;-76
2023/08/18 06:36:58;;;;;;;2.47;2.27;;;;;;;;;;5060610;28;20226;-76
2023/08/18 06:39:23;;;;;;;4.07;2.50;;;;;;;;;;5062871;28;20178;-76
2023/08/18 06:41:48;;;;;;;3.47;2.30;;;;;;;;;;5065780;28;20214;-76
2023/08/18 06:44:14;;;;;;;3.37;2.23;;;;;;;;;;5067554;28;20183;-76
2023/08/18 06:46:39;;;;;;;2.67;2.03;;;;;;;;;;5061956;28;20177;-76
2023/08/18 06:49:04;;;;;;;3.13;2.10;;;;;;;;;;5064292;28;20189;-76
2023/08/18 06:51:29;;;;;;;2.23;2.03;;;;;;;;;;5083047;28;20204;-76
2023/08/18 06:53:55;;;;;;;3.97;2.10;;;;;;;;;;5072825;28;20272;-76
2023/08/18 06:56:20;;;;;;;3.40;1.80;;;;;;;;;;5069581;28;20178;-76
2023/08/18 06:58:45;;;;;;;2.30;2.13;;;;;;;;;;5072591;28;20190;-76
2023/08/18 07:01:10;;;;;;;5.00;2.40;;;;;;;;;;5071693;28;20213;-76
2023/08/18 07:03:36;;;;;;;5.10;2.57;;;;;;;;;;5065090;28;20186;-76
2023/08/18 07:06:01;;;;;;;7.87;2.73;;;;;;;;;;5069498;28;20323;-76
2023/08/18 07:08:27;;;;;;;3.37;3.00;;;;;;;;;;5063936;28;20170;-76
2023/08/18 07:10:52;;;;;;;4.67;2.47;;;;;;;;;;5070126;28;20185;-76
2023/08/18 07:13:17;;;;;;;2.93;1.90;;;;;;;;;;5078371;28;20175;-76
2023/08/18 07:15:42;;;;;;;2.30;2.10;;;;;;;;;;5069830;28;20178;-76
2023/08/18 07:18:07;;;;;;;2.30;2.10;;;;;;;;;;5065278;28;20189;-76
2023/08/18 07:20:33;;;;;;;4.40;2.40;;;;;;;;;;5074581;28;20196;-76
2023/08/18 07:22:58;;;;;;;2.33;2.07;;;;;;;;;;5062154;28;20184;-76
2023/08/18 07:25:24;;;;;;;2.73;2.53;;;;;;;;;;5067580;28;20177;-76
2023/08/18 07:27:49;;;;;;;2.97;2.37;;;;;;;;;;5068922;28;20183;-76
2023/08/18 07:30:15;;;;;;;2.60;2.40;;;;;;;;;;5071967;28;20231;-76
2023/08/18 07:32:40;;;;;;;15.73;3.53;;;;;;;;;;5070337;28;20182;-76
2023/08/18 07:35:08;;;;;;;3.20;2.37;;;;;;;;;;5079302;28;20223;-76
2023/08/18 07:37:34;;;;;;;3.07;2.37;;;;;;;;;;5066157;28;20231;-76
2023/08/18 07:39:59;;;;;;;3.07;2.00;;;;;;;;;;5075816;28;20208;-76
2023/08/18 07:42:25;;;;;;;4.17;2.77;;;;;;;;;;5065638;28;20180;-76
2023/08/18 07:44:50;;;;;;;3.43;2.60;;;;;;;;;;5066647;28;20177;-76
2023/08/18 07:47:15;;;;;;;3.07;2.70;;;;;;;;;;5067618;28;20172;-76
2023/08/18 07:49:40;;;;;;;4.00;2.55;;;;;;;;;;5082736;28;20181;-76
2023/08/18 07:52:05;;;;;;;3.33;2.03;;;;;;;;;;5082205;28;20190;-76
2023/08/18 07:54:31;;;;;;;3.92;1.80;;;;;;;;;;5059803;28;20175;-76
2023/08/18 07:56:56;;;;;;;3.43;2.10;;;;;;;;;;5066234;28;20169;-76
2023/08/18 07:59:22;;;;;;;2.73;2.23;;;;;;;;;;5066251;28;20187;-76
2023/08/18 08:01:47;;;;;;;2.80;2.23;;;;;;;;;;5070511;28;20207;-77
2023/08/18 08:04:14;;;;;;;13.10;3.23;;;;;;;;;;5065629;28;20176;-76
2023/08/18 08:06:58;;;;;;;3.00;2.53;;;;;;;;;;5069114;28;20185;-76
2023/08/18 08:09:24;;;;;;;4.63;2.30;;;;;;;;;;5068189;28;20173;-76
2023/08/18 08:11:49;;;;;;;2.72;2.50;;;;;;;;;;5068361;28;20232;-76
2023/08/18 08:14:14;;;;;;;3.95;2.70;;;;;;;;;;5064895;28;20181;-76
2023/08/18 08:16:40;;;;;;;5.82;3.22;;;;;;;;;;5063632;28;20197;-77
2023/08/18 08:19:05;;;;;;;7.63;3.10;;;;;;;;;;5076247;28;20188;-77
2023/08/18 08:21:31;;;;;;;2.97;2.72;;;;;;;;;;5069669;28;20193;-77
2023/08/18 08:23:56;;;;;;;4.68;2.50;;;;;;;;;;5069557;28;20180;-77
2023/08/18 08:26:21;;;;;;;5.70;2.63;;;;;;;;;;5066920;28;20180;-77
2023/08/18 08:28:46;;;;;;;8.40;2.95;;;;;;;;;;5074565;28;20189;-77
2023/08/18 08:31:12;;;;;;;5.07;2.72;;;;;;;;;;5069635;28;20177;-77
2023/08/18 08:33:37;;;;;;;2.50;2.30;;;;;;;;;;5063026;28;20177;-77
2023/08/18 08:36:03;;;;;;;8.32;3.15;;;;;;;;;;5071702;28;20221;-77
2023/08/18 08:38:28;;;;;;;5.68;3.00;;;;;;;;;;5070015;28;20172;-77
2023/08/18 08:40:55;;;;;;;3.00;2.70;;;;;;;;;;5087924;28;20249;-77
2023/08/18 08:43:20;;;;;;;4.82;2.90;;;;;;;;;;5069652;28;20177;-77
2023/08/18 08:45:46;;;;;;;3.95;2.47;;;;;;;;;;5074309;28;20177;-77
2023/08/18 08:48:11;;;;;;;5.63;2.22;;;;;;;;;;5072296;28;20184;-77
2023/08/18 08:50:40;;;;;;;3.83;2.72;;;;;;;;;;5080503;28;20220;-77
2023/08/18 08:53:07;;;;;;;4.30;2.92;;;;;;;;;;5075681;28;20181;-77
2023/08/18 08:55:33;;;;;;;3.40;3.08;;;;;;;;;;5078243;28;20264;-77
2023/08/18 08:57:58;;;;;;;8.25;3.05;;;;;;;;;;5089220;28;20259;-77
2023/08/18 09:00:24;;;;;;;6.70;4.20;;;;;;;;;;5078220;28;20227;-77
2023/08/18 09:02:49;;;;;;;7.05;2.90;;;;;;;;;;5089285;28;20184;-77
2023/08/18 09:05:14;;;;;;;3.55;2.70;;;;;;;;;;5097415;28;20199;-77
2023/08/18 09:07:40;;;;;;;4.60;2.92;;;;;;;;;;5096923;28;20172;-77
2023/08/18 09:10:06;;;;;;;8.48;3.97;;;;;;;;;;5088253;28;20177;-77
2023/08/18 09:12:31;;;;;;;3.20;2.90;;;;;;;;;;5072877;28;20181;-77
2023/08/18 09:14:58;;;;;;;11.68;4.85;;;;;;;;;;5072265;28;20181;-77
2023/08/18 09:17:23;;;;;;;5.97;2.90;;;;;;;;;;5089213;28;20173;-77
2023/08/18 09:19:49;;;;;;;4.55;3.20;;;;;;;;;;5088960;28;20193;-77
2023/08/18 09:22:19;;;;;;;3.58;3.28;;;;;;;;;;5090604;28;20198;-77
2023/08/18 09:24:46;;;;;;;4.05;3.30;;;;;;;;;;5073307;28;20173;-77
2023/08/18 09:27:12;;;;;;;3.10;2.90;;;;;;;;;;5073373;28;20177;-77
2023/08/18 09:29:37;;;;;;;3.03;2.78;;;;;;;;;;5074453;28;20226;-77
2023/08/18 09:32:02;;;;;;;3.88;2.97;;;;;;;;;;5087403;28;20184;-77
2023/08/18 09:34:30;;;;;;;4.78;3.28;;;;;;;;;;5068571;28;20205;-77
2023/08/18 09:36:55;;;;;;;3.15;2.85;;;;;;;;;;5070497;28;20296;-77
2023/08/18 09:39:21;;;;;;;2.70;2.50;;;;;;;;;;5086910;28;20271;-77
2023/08/18 09:41:50;;;;;;;6.95;3.33;;;;;;;;;;5086584;28;20205;-78
2023/08/18 09:44:16;;;;;;;4.85;3.22;;;;;;;;;;5092495;28;20191;-77
2023/08/18 09:46:42;;;;;;;6.47;3.30;;;;;;;;;;5075642;28;20173;-78
2023/08/18 09:49:08;;;;;;;3.05;2.72;;;;;;;;;;5080576;28;20181;-78
2023/08/18 09:51:34;;;;;;;7.18;3.22;;;;;;;;;;5065018;28;20197;-77
2023/08/18 09:54:04;;;;;;;4.35;2.70;;;;;;;;;;5072967;28;20177;-77
2023/08/18 09:56:32;;;;;;;3.45;2.78;;;;;;;;;;5070217;28;20212;-77
2023/08/18 09:59:19;;;;;;;15.30;3.53;;;;;;;;;;5086603;28;20206;-77
2023/08/18 10:01:46;;;;;;;5.88;2.75;;;;;;;;;;5074299;28;20204;-78
2023/08/18 10:04:11;;;;;;;3.40;3.10;;;;;;;;;;5087267;28;20188;-78
2023/08/18 10:06:39;;;;;;;4.95;2.70;;;;;;;;;;5091909;28;20226;-78
2023/08/18 10:09:04;;;;;;;3.05;2.83;;;;;;;;;;5073813;28;20176;-78
2023/08/18 10:11:30;;;;;;;3.92;2.70;;;;;;;;;;5073083;28;20177;-77
2023/08/18 10:13:55;;;;;;;6.30;2.90;;;;;;;;;;5062827;28;20195;-77
2023/08/18 10:16:21;;;;;;;7.85;3.50;;;;;;;;;;5074338;28;20328;-77
2023/08/18 10:18:56;;;;;;;3.55;2.88;;;;;;;;;;5074991;28;20276;-78
2023/08/18 10:21:22;;;;;;;5.20;2.90;;;;;;;;;;5068729;28;20204;-77
2023/08/18 10:23:47;;;;;;;8.02;3.58;;;;;;;;;;5072676;28;20176;-77
2023/08/18 10:26:14;;;;;;;3.95;2.90;;;;;;;;;;5087833;28;20219;-77
2023/08/18 10:28:40;;;;;;;3.40;2.58;;;;;;;;;;5092324;28;20358;-77
2023/08/18 10:31:08;;;;;;;4.65;2.67;;;;;;;;;;5075355;28;20268;-77
2023/08/18 10:33:43;;;;;;;5.22;2.58;;;;;;;;;;5073812;28;20181;-77
2023/08/18 10:36:09;;;;;;;4.20;2.75;;;;;;;;;;5088895;28;20212;-77
2023/08/18 10:38:36;;;;;;;4.60;2.65;;;;;;;;;;5080752;28;20170;-77
2023/08/18 10:41:01;;;;;;;4.65;2.53;;;;;;;;;;5072826;28;20201;-77
2023/08/18 10:43:27;;;;;;;5.28;2.67;;;;;;;;;;5087282;28;20237;-77
2023/08/18 10:45:57;;;;;;;2.92;2.45;;;;;;;;;;5097487;28;20181;-77
2023/08/18 10:48:22;;;;;;;7.25;2.63;;;;;;;;;;5077915;28;20176;-77
2023/08/18 10:50:47;;;;;;;3.10;2.33;;;;;;;;;;5071585;28;20468;-77
2023/08/18 10:53:13;;;;;;;5.30;2.72;;;;;;;;;;5070023;28;20326;-77
2023/08/18 10:55:42;;;;;;;9.07;3.50;;;;;;;;;;5091245;28;20191;-77
2023/08/18 10:58:08;;;;;;;9.00;3.28;;;;;;;;;;5082360;28;20243;-77
2023/08/18 11:00:33;;;;;;;5.63;3.05;;;;;;;;;;5067829;28;20220;-77
2023/08/18 11:02:59;;;;;;;5.13;2.60;;;;;;;;;;5066404;28;20181;-77
2023/08/18 11:05:25;;;;;;;7.22;3.00;;;;;;;;;;5073754;28;20173;-77
2023/08/18 11:07:50;;;;;;;3.92;2.65;;;;;;;;;;5068843;28;20177;-77
2023/08/18 11:10:16;;;;;;;3.20;2.85;;;;;;;;;;5063377;28;20184;-77
2023/08/18 11:12:42;;;;;;;5.15;3.50;;;;;;;;;;5082146;28;20254;-78
2023/08/18 11:15:07;;;;;;;4.30;3.13;;;;;;;;;;5064184;28;20196;-77
2023/08/18 11:17:32;;;;;;;3.33;3.00;;;;;;;;;;5090730;28;20176;-77
2023/08/18 11:19:58;;;;;;;4.38;3.08;;;;;;;;;;5083067;28;20189;-77
2023/08/18 11:22:23;;;;;;;18.52;4.68;;;;;;;;;;5074250;28;20175;-77
2023/08/18 11:24:48;;;;;;;4.32;3.08;;;;;;;;;;5075069;28;20229;-77
2023/08/18 11:27:13;;;;;;;5.00;2.97;;;;;;;;;;5084008;28;20179;-77
2023/08/18 11:29:39;;;;;;;5.25;2.80;;;;;;;;;;5082247;28;20471;-77
2023/08/18 11:32:07;;;;;;;3.38;2.78;;;;;;;;;;5088145;28;20238;-77
2023/08/18 11:34:32;;;;;;;3.25;2.20;;;;;;;;;;5065725;28;20183;-77
2023/08/18 11:36:58;;;;;;;4.60;2.65;;;;;;;;;;5082160;28;20231;-77
2023/08/18 11:39:23;;;;;;;7.28;3.15;;;;;;;;;;5072541;28;20183;-77
2023/08/18 11:41:49;;;;;;;4.57;2.38;;;;;;;;;;5069904;28;20200;-77
2023/08/18 11:44:14;;;;;;;4.78;2.80;;;;;;;;;;5064686;28;20186;-78
2023/08/18 11:46:39;;;;;;;4.68;2.80;;;;;;;;;;5082158;28;20219;-77
2023/08/18 11:49:17;;;;;;;3.13;2.23;;;;;;;;;;5072731;28;20229;-77
2023/08/18 11:51:55;;;;;;;4.28;2.38;;;;;;;;;;5090122;28;20482;-77
2023/08/18 11:54:20;;;;;;;4.65;2.60;;;;;;;;;;5071034;28;20188;-77
2023/08/18 11:56:45;;;;;;;4.25;2.22;;;;;;;;;;5089435;28;20189;-77
2023/08/18 11:59:17;;;;;;;4.70;2.40;;;;;;;;;;5072022;28;20180;-77
2023/08/18 12:01:42;;;;;;;6.53;2.33;;;;;;;;;;5090899;28;20210;-77
2023/08/18 12:04:10;;;;;;;4.30;2.55;;;;;;;;;;5071377;28;20173;-77
2023/08/18 12:06:35;;;;;;;7.72;2.85;;;;;;;;;;5072104;28;20199;-78
2023/08/18 12:09:00;;;;;;;9.30;2.30;;;;;;;;;;5085881;28;20172;-77
2023/08/18 12:11:26;;;;;;;9.15;2.85;;;;;;;;;;5072771;28;20448;-78
2023/08/18 12:13:51;;;;;;;5.60;2.40;;;;;;;;;;5070280;28;20178;-77
2023/08/18 12:16:16;;;;;;;3.17;2.30;;;;;;;;;;5091078;28;20264;-77
2023/08/18 12:18:42;;;;;;;4.18;2.20;;;;;;;;;;5072286;28;20420;-78
2023/08/18 12:21:07;;;;;;;5.37;2.50;;;;;;;;;;5087711;28;20204;-77
2023/08/18 12:23:32;;;;;;;8.38;2.58;;;;;;;;;;5068320;28;20426;-77
2023/08/18 12:25:57;;;;;;;9.73;2.83;;;;;;;;;;5070145;28;20181;-77
2023/08/18 12:28:23;;;;;;;4.07;2.42;;;;;;;;;;5074587;28;20169;-78
2023/08/18 12:30:48;;;;;;;8.23;2.53;;;;;;;;;;5069337;28;20273;-77
2023/08/18 12:33:13;;;;;;;12.17;3.80;;;;;;;;;;5069902;28;20185;-78
2023/08/18 12:35:38;;;;;;;5.70;3.17;;;;;;;;;;5064917;28;20454;-78
2023/08/18 12:38:03;;;;;;;7.70;2.78;;;;;;;;;;5088866;28;20185;-78
2023/08/18 12:40:29;;;;;;;7.03;3.00;;;;;;;;;;5086576;28;20208;-78
2023/08/18 12:42:54;;;;;;;9.43;2.58;;;;;;;;;;5069825;28;20177;-78
2023/08/18 12:45:20;;;;;;;7.00;4.80;;;;;;;;;;5070411;28;20173;-78
2023/08/18 12:51:20;;;;;;;3.92;2.75;;;;;;;;;;5088035;28;20260;-78
2023/08/18 12:53:45;;;;;;;5.38;2.63;;;;;;;;;;5069553;28;20180;-77
2023/08/18 12:56:10;;;;;;;3.65;2.47;;;;;;;;;;5083794;28;20386;-78
2023/08/18 12:58:36;;;;;;;12.45;3.20;;;;;;;;;;5070103;28;20177;-78
2023/08/18 13:01:01;;;;;;;4.57;2.63;;;;;;;;;;5068579;28;20216;-77
2023/08/18 13:03:26;;;;;;;2.97;2.40;;;;;;;;;;5072039;28;20203;-78
2023/08/18 13:05:52;;;;;;;5.07;2.92;;;;;;;;;;5089921;28;20184;-78
2023/08/18 13:08:17;;;;;;;5.95;3.00;;;;;;;;;;5071696;28;20180;-78
2023/08/18 13:10:42;;;;;;;4.37;2.70;;;;;;;;;;5087701;28;20173;-78
2023/08/18 13:13:07;;;;;;;4.45;3.03;;;;;;;;;;5072738;28;20429;-78
2023/08/18 13:15:33;;;;;;;10.05;3.13;;;;;;;;;;5071214;28;20200;-78
2023/08/18 13:17:58;;;;;;;7.07;3.40;;;;;;;;;;5070708;28;20184;-78
2023/08/18 13:20:23;;;;;;;7.88;3.10;;;;;;;;;;5075345;28;20481;-78
2023/08/18 13:22:48;;;;;;;10.65;2.70;;;;;;;;;;5075128;28;20195;-78
2023/08/18 13:25:14;;;;;;;12.95;2.83;;;;;;;;;;5077033;28;20179;-78
2023/08/18 13:27:40;;;;;;;9.75;3.03;;;;;;;;;;5074738;28;20196;-78
2023/08/18 13:30:07;;;;;;;12.05;3.58;;;;;;;;;;5093635;28;20181;-78
2023/08/18 13:32:32;;;;;;;3.00;2.28;;;;;;;;;;5088726;28;20173;-78
2023/08/18 13:34:58;;;;;;;4.68;2.65;;;;;;;;;;5091436;28;20226;-78
2023/08/18 13:37:23;;;;;;;4.95;2.63;;;;;;;;;;5089979;28;20272;-78
2023/08/18 13:39:48;;;;;;;5.38;3.15;;;;;;;;;;5074473;28;20208;-77
2023/08/18 13:42:14;;;;;;;3.92;2.45;;;;;;;;;;5088182;28;20193;-77
2023/08/18 13:44:39;;;;;;;4.72;2.30;;;;;;;;;;5073688;28;20181;-78
2023/08/18 13:47:04;;;;;;;5.03;2.80;;;;;;;;;;5090089;28;20184;-78
2023/08/18 13:49:30;;;;;;;5.45;2.78;;;;;;;;;;5083919;28;20430;-78
2023/08/18 13:51:55;;;;;;;6.70;2.70;;;;;;;;;;5073508;28;20208;-78
2023/08/18 13:54:20;;;;;;;7.20;3.22;;;;;;;;;;5079108;28;20168;-78
2023/08/18 13:56:45;;;;;;;6.90;2.70;;;;;;;;;;5094179;28;20173;-78
2023/08/18 13:59:11;;;;;;;5.13;3.15;;;;;;;;;;5081647;28;20181;-78
2023/08/18 14:01:36;;;;;;;4.28;2.92;;;;;;;;;;5069519;28;20212;-78
2023/08/18 14:04:02;;;;;;;9.30;3.33;;;;;;;;;;5075397;28;20184;-78
2023/08/18 14:06:27;;;;;;;7.47;3.20;;;;;;;;;;5072412;28;20272;-78
2023/08/18 14:08:53;;;;;;;8.30;2.83;;;;;;;;;;5087955;28;20216;-78
2023/08/18 14:11:19;;;;;;;4.22;2.75;;;;;;;;;;5072375;28;20177;-78
2023/08/18 14:13:44;;;;;;;4.18;2.97;;;;;;;;;;5072676;28;20204;-78
2023/08/18 14:16:09;;;;;;;10.20;3.42;;;;;;;;;;5090366;28;20212;-78
2023/08/18 14:18:35;;;;;;;7.67;2.73;;;;;;;;;;5072840;28;20207;-78
2023/08/18 14:21:00;;;;;;;8.02;2.92;;;;;;;;;;5086754;28;20453;-78
2023/08/18 14:23:25;;;;;;;7.15;3.65;;;;;;;;;;5086142;28;20169;-78
2023/08/18 14:25:53;;;;;;;6.23;3.37;;;;;;;;;;5071204;28;20189;-78
2023/08/18 14:28:18;;;;;;;4.13;2.83;;;;;;;;;;5080084;28;20492;-78
2023/08/18 14:30:43;;;;;;;6.22;2.65;;;;;;;;;;5085394;28;20256;-78
2023/08/18 14:33:09;;;;;;;8.50;3.53;;;;;;;;;;5094117;28;20327;-78
2023/08/18 14:35:34;;;;;;;8.82;4.07;;;;;;;;;;5087810;28;20430;-78
2023/08/18 14:37:59;;;;;;;9.98;3.75;;;;;;;;;;5073697;28;20218;-78